Saltsburg, Pennsylvania
Current Conditions -  °F | °C
As of 11:45 AM on Saturday 22 Nov 2014 (Local Time) from KLBE Reporting Station
Light Rain Light Rain  
Wind Chill: 31°   Ceiling: 4400
Heat Index: 39°   Visibility: 6mi
Dew Point: 16°   Wind: 15mph
Humidity: 39%   Direction: 230°SW
Pressure: 30.28"   Gusts: 26mph
Location:  40.49°N, 79.45°W
Report Text: KLBE 221645Z 23013G23KT 6SM -RA SCT020 OVC044 04/M09 A3028
Loading
Personal Weather Stations






























Interactive Weather Map New forecast layout! Learn more

10-Day Weather Forecast

Advertisements
Track Severe Weather on mobile